createdAt,value
2023-11-26T00:00:39.098Z,100607.34
2023-11-26T00:03:08.684Z,100591.72
2023-11-26T00:05:38.029Z,100609.03
2023-11-26T00:08:07.218Z,100617.72
2023-11-26T00:10:36.819Z,100624.66
2023-11-26T00:13:05.776Z,100611.66
2023-11-26T00:15:34.610Z,100616.88
2023-11-26T00:18:03.384Z,100617.72
2023-11-26T00:20:32.337Z,100577.91
2023-11-26T00:23:01.426Z,100596.91
2023-11-26T00:25:30.538Z,100597.72
2023-11-26T00:27:59.483Z,100614.22
2023-11-26T00:30:28.642Z,100595.09
2023-11-26T00:32:57.626Z,100603.75
2023-11-26T00:35:27.155Z,100607.22
2023-11-26T00:37:56.183Z,100622.00
2023-11-26T00:40:26.458Z,100621.09
2023-11-26T00:42:55.421Z,100622.84
2023-11-26T00:45:23.984Z,100622.88
2023-11-26T00:47:53.546Z,100628.06
2023-11-26T00:50:24.460Z,100627.19
2023-11-26T00:52:53.283Z,100627.19
2023-11-26T00:55:22.157Z,100629.78
2023-11-26T00:57:51.546Z,100632.41
2023-11-26T01:00:21.123Z,100630.63
2023-11-26T01:02:49.987Z,100636.69
2023-11-26T01:05:20.001Z,100629.75
2023-11-26T01:07:48.794Z,100636.69
2023-11-26T01:10:17.781Z,100625.41
2023-11-26T01:12:46.587Z,100629.81
2023-11-26T01:15:17.552Z,100650.56
2023-11-26T01:17:46.838Z,100647.97
2023-11-26T01:20:16.273Z,100647.09
2023-11-26T01:22:44.900Z,100653.19
2023-11-26T01:25:13.742Z,100654.91
2023-11-26T01:27:43.087Z,100657.53
2023-11-26T01:30:12.696Z,100645.34
2023-11-26T01:32:41.535Z,100642.75
2023-11-26T01:35:10.848Z,100638.38
2023-11-26T01:37:39.769Z,100627.19
2023-11-26T01:40:13.721Z,100634.91
2023-11-26T01:42:45.935Z,100638.41
2023-11-26T01:45:14.755Z,100641.88
2023-11-26T01:47:46.796Z,100656.66
2023-11-26T01:50:24.099Z,100635.00
2023-11-26T01:52:55.179Z,100659.22
2023-11-26T01:55:25.691Z,100647.94
2023-11-26T01:57:54.878Z,100645.34
2023-11-26T02:00:24.177Z,100654.00
2023-11-26T02:02:53.221Z,100652.25
2023-11-26T02:05:22.360Z,100669.66
2023-11-26T02:07:51.342Z,100662.72
2023-11-26T02:10:21.121Z,100665.31
2023-11-26T02:13:16.762Z,100681.81
2023-11-26T02:15:48.444Z,100663.59
2023-11-26T02:18:17.376Z,100674.03
2023-11-26T02:20:46.153Z,100672.28
2023-11-26T02:23:17.960Z,100683.53
2023-11-26T02:25:46.768Z,100694.84
2023-11-26T02:28:15.692Z,100690.53
2023-11-26T02:30:44.482Z,100674.97
2023-11-26T02:33:13.331Z,100702.69
2023-11-26T02:35:42.041Z,100693.16
2023-11-26T02:38:11.048Z,100693.13
2023-11-26T02:40:43.040Z,100704.44
2023-11-26T02:43:13.019Z,100717.44
2023-11-26T02:45:42.243Z,100711.38
2023-11-26T02:48:11.082Z,100708.72
2023-11-26T02:50:40.159Z,100695.78
2023-11-26T02:53:09.211Z,100715.69
2023-11-26T02:55:38.064Z,100703.53
2023-11-26T02:58:07.277Z,100692.28
2023-11-26T03:00:38.298Z,100716.56
2023-11-26T03:03:08.132Z,100726.09
2023-11-26T03:05:37.089Z,100733.88
2023-11-26T03:08:23.345Z,100736.53
2023-11-26T03:11:11.184Z,100746.06
2023-11-26T03:13:40.147Z,100734.78
2023-11-26T03:16:10.173Z,100726.09
2023-11-26T03:18:39.421Z,100725.19
2023-11-26T03:21:09.113Z,100740.84
2023-11-26T03:23:37.838Z,100741.72
2023-11-26T03:26:07.078Z,100744.31
2023-11-26T03:28:36.630Z,100733.09
2023-11-26T03:31:07.063Z,100747.78
2023-11-26T03:33:37.472Z,100754.72
2023-11-26T03:36:08.509Z,100756.47
2023-11-26T03:38:37.776Z,100758.19
2023-11-26T03:41:08.938Z,100751.25
2023-11-26T03:43:38.015Z,100766.84
2023-11-26T03:46:08.518Z,100756.44
2023-11-26T03:48:37.740Z,100770.31
2023-11-26T03:51:06.732Z,100761.59
2023-11-26T03:53:35.840Z,100751.19
2023-11-26T03:56:04.635Z,100761.59
2023-11-26T03:58:34.840Z,100765.03
2023-11-26T04:01:05.108Z,100731.28
2023-11-26T04:03:35.168Z,100765.03
2023-11-26T04:06:04.086Z,100764.19
2023-11-26T04:08:33.611Z,100771.13
2023-11-26T04:11:02.560Z,100780.69
2023-11-26T04:13:33.677Z,100790.28
2023-11-26T04:16:05.384Z,100778.97
2023-11-26T04:18:34.131Z,100788.50
2023-11-26T04:21:03.419Z,100798.06
2023-11-26T04:23:32.527Z,100791.09
2023-11-26T04:26:02.326Z,100776.31
2023-11-26T04:28:31.354Z,100792.84
2023-11-26T04:31:00.248Z,100783.31
2023-11-26T04:33:31.727Z,100806.75
2023-11-26T04:36:01.854Z,100807.66
2023-11-26T04:38:30.760Z,100811.13
2023-11-26T04:40:59.769Z,100818.91
2023-11-26T04:43:28.673Z,100812.81
2023-11-26T04:45:57.425Z,100830.22
2023-11-26T04:48:26.468Z,100828.53
2023-11-26T04:50:56.640Z,100831.09
2023-11-26T04:53:25.567Z,100834.59
2023-11-26T04:55:55.117Z,100842.41
2023-11-26T04:58:24.149Z,100845.03
2023-11-26T05:00:55.657Z,100857.19
2023-11-26T05:03:24.654Z,100858.91
2023-11-26T05:05:53.478Z,100869.34
2023-11-26T05:08:22.266Z,100871.94
2023-11-26T05:10:51.594Z,100865.00
2023-11-26T05:13:20.373Z,100861.47
2023-11-26T05:15:49.010Z,100859.75
2023-11-26T05:18:17.904Z,100871.88
2023-11-26T05:20:47.500Z,100856.22
2023-11-26T05:23:16.895Z,100865.81
2023-11-26T05:25:46.715Z,100854.50
2023-11-26T05:28:16.609Z,100865.75
2023-11-26T05:30:46.910Z,100848.38
2023-11-26T05:33:16.974Z,100881.34
2023-11-26T05:35:46.558Z,100883.09
2023-11-26T05:38:15.348Z,100888.28
2023-11-26T05:40:44.222Z,100892.66
2023-11-26T05:43:12.872Z,100908.31
2023-11-26T05:45:41.880Z,100914.41
2023-11-26T05:48:10.636Z,100913.53
2023-11-26T05:50:39.478Z,100917.91
2023-11-26T05:53:09.222Z,100916.16
2023-11-26T05:55:37.749Z,100914.41
2023-11-26T05:58:06.879Z,100917.00
2023-11-26T06:00:35.620Z,100917.03
2023-11-26T06:03:04.549Z,100910.88
2023-11-26T06:05:36.521Z,100913.50
2023-11-26T06:08:05.774Z,100932.69
2023-11-26T06:10:35.281Z,100932.63
2023-11-26T06:13:04.186Z,100927.38
2023-11-26T06:15:32.840Z,100934.34
2023-11-26T06:18:01.646Z,100940.44
2023-11-26T06:20:30.623Z,100936.97
2023-11-26T06:22:59.433Z,100949.16
2023-11-26T06:25:28.227Z,100952.59
2023-11-26T06:27:57.559Z,100963.94
2023-11-26T06:30:26.652Z,100976.06
2023-11-26T06:32:56.606Z,100951.75
2023-11-26T06:35:25.411Z,100964.75
2023-11-26T06:37:54.122Z,100963.00
2023-11-26T06:40:23.161Z,100949.91
2023-11-26T06:42:51.758Z,100946.38
2023-11-26T06:45:20.830Z,100955.00
2023-11-26T06:47:49.559Z,100952.34
2023-11-26T06:50:18.522Z,100947.13
2023-11-26T06:52:47.385Z,100960.19
2023-11-26T06:55:16.332Z,100957.59
2023-11-26T06:57:45.126Z,100968.88
2023-11-26T07:00:14.387Z,100978.44
2023-11-26T07:02:43.659Z,100981.94
2023-11-26T07:05:14.795Z,100981.97
2023-11-26T07:07:43.461Z,100993.28
2023-11-26T07:10:12.969Z,100997.69
2023-11-26T07:12:41.636Z,101014.28
2023-11-26T07:15:12.068Z,101009.06
2023-11-26T07:17:40.751Z,101003.00
2023-11-26T07:20:11.931Z,101015.16
2023-11-26T07:22:41.118Z,101010.81
2023-11-26T07:25:10.253Z,101022.13
2023-11-26T07:27:39.252Z,101022.13
2023-11-26T07:30:11.631Z,101017.78
2023-11-26T07:32:44.264Z,101032.59
2023-11-26T07:35:13.138Z,101037.81
2023-11-26T07:37:42.543Z,101037.75
2023-11-26T07:40:15.134Z,101027.38
2023-11-26T07:42:44.004Z,101038.66
2023-11-26T07:45:13.552Z,101035.16
2023-11-26T07:47:42.320Z,101035.19
2023-11-26T07:50:11.258Z,101031.72
2023-11-26T07:52:41.065Z,101049.13
2023-11-26T07:55:10.586Z,101046.50
2023-11-26T07:57:39.475Z,101041.31
2023-11-26T08:00:11.413Z,101041.31
2023-11-26T08:02:43.353Z,101042.19
2023-11-26T08:05:20.427Z,101042.16
2023-11-26T08:07:49.609Z,101043.84
2023-11-26T08:10:22.727Z,101044.75
2023-11-26T08:12:52.394Z,101053.44
2023-11-26T08:15:22.044Z,101051.69
2023-11-26T08:17:53.151Z,101052.53
2023-11-26T08:20:23.630Z,101064.75
2023-11-26T08:22:53.401Z,101071.72
2023-11-26T08:25:25.781Z,101079.56
2023-11-26T08:28:01.009Z,101079.56
2023-11-26T08:30:33.008Z,101095.25
2023-11-26T08:33:04.452Z,101080.47
2023-11-26T08:35:34.520Z,101087.41
2023-11-26T08:38:04.425Z,101090.88
2023-11-26T08:40:36.025Z,101110.06
2023-11-26T08:43:06.443Z,101117.00
2023-11-26T08:45:35.248Z,101103.09
2023-11-26T08:48:04.837Z,101107.47
2023-11-26T08:50:34.045Z,101111.81
2023-11-26T08:53:07.400Z,101123.16
2023-11-26T08:55:39.135Z,101121.41
2023-11-26T08:58:07.803Z,101113.59
2023-11-26T09:00:36.738Z,101117.03
2023-11-26T09:03:05.561Z,101074.47
2023-11-26T09:05:34.256Z,101121.38
2023-11-26T09:08:03.109Z,101120.53
2023-11-26T09:10:31.833Z,101123.13
2023-11-26T09:13:00.683Z,101132.72
2023-11-26T09:15:30.706Z,101144.06
2023-11-26T09:18:01.063Z,101147.56
2023-11-26T09:20:31.104Z,101155.38
2023-11-26T09:22:59.742Z,101168.47
2023-11-26T09:25:29.379Z,101168.50
2023-11-26T09:27:58.563Z,101181.56
2023-11-26T09:30:27.572Z,101171.97
2023-11-26T09:32:56.574Z,101177.19
2023-11-26T09:35:25.632Z,101178.94
2023-11-26T09:37:54.523Z,101189.38
2023-11-26T09:40:23.716Z,101190.25
2023-11-26T09:42:57.936Z,101194.63
2023-11-26T09:45:26.991Z,101194.66
2023-11-26T09:47:55.873Z,101198.16
2023-11-26T09:50:24.705Z,101192.91
2023-11-26T09:52:56.809Z,101205.09
2023-11-26T09:55:26.158Z,101209.41
2023-11-26T09:57:55.241Z,101208.53
2023-11-26T10:00:25.532Z,101225.09
2023-11-26T10:03:05.038Z,101223.38
2023-11-26T10:05:34.661Z,101233.81
2023-11-26T10:08:04.664Z,101239.91
2023-11-26T10:10:33.568Z,101248.63
2023-11-26T10:13:06.551Z,101242.53
2023-11-26T10:15:43.156Z,101260.78
2023-11-26T10:18:15.510Z,101262.56
2023-11-26T10:20:47.177Z,101265.16
2023-11-26T10:23:27.581Z,101269.50
2023-11-26T10:25:56.313Z,101267.78
2023-11-26T10:28:25.171Z,101279.94
2023-11-26T10:30:54.180Z,101285.22
2023-11-26T10:33:23.670Z,101283.47
2023-11-26T10:35:59.458Z,101284.31
2023-11-26T10:38:36.041Z,101282.56
2023-11-26T10:41:05.808Z,101280.84
2023-11-26T10:43:45.602Z,101271.25
2023-11-26T10:46:17.921Z,101276.47
2023-11-26T10:48:56.584Z,101286.91
2023-11-26T10:51:29.992Z,101286.06
2023-11-26T10:54:07.381Z,101279.97
2023-11-26T10:56:41.751Z,101285.19
2023-11-26T10:59:11.800Z,101303.50
2023-11-26T11:01:42.554Z,101302.59
2023-11-26T11:04:16.532Z,101292.16
2023-11-26T11:06:45.748Z,101304.38
2023-11-26T11:09:29.312Z,101312.19
2023-11-26T11:12:08.663Z,101326.13
2023-11-26T11:14:37.605Z,101326.97
2023-11-26T11:17:06.613Z,101335.69
2023-11-26T11:19:57.349Z,101328.72
2023-11-26T11:22:37.109Z,101352.25
2023-11-26T11:25:13.721Z,101352.22
2023-11-26T11:28:01.582Z,101348.75
2023-11-26T11:30:42.317Z,101352.22
2023-11-26T11:33:12.525Z,101358.34
2023-11-26T11:35:43.205Z,101352.22
2023-11-26T11:38:12.726Z,101350.50
2023-11-26T11:41:21.869Z,101364.44
2023-11-26T11:44:29.734Z,101366.19
2023-11-26T11:46:59.820Z,101360.09
2023-11-26T11:49:48.586Z,101368.78
2023-11-26T11:52:18.562Z,101336.59
2023-11-26T11:55:17.458Z,101372.25
2023-11-26T11:57:50.643Z,101367.91
2023-11-26T12:00:24.159Z,101373.13
2023-11-26T12:02:56.124Z,101382.72
2023-11-26T12:05:27.225Z,101384.47
2023-11-26T12:08:00.273Z,101391.41
2023-11-26T12:10:34.954Z,101385.34
2023-11-26T12:13:12.651Z,101394.91
2023-11-26T12:15:42.049Z,101396.66
2023-11-26T12:18:11.222Z,101397.50
2023-11-26T12:20:40.395Z,101389.69
2023-11-26T12:23:09.243Z,101405.38
2023-11-26T12:25:37.776Z,101421.00
2023-11-26T12:28:08.909Z,101420.16
2023-11-26T12:30:39.820Z,101426.22
2023-11-26T12:33:09.581Z,101427.13
2023-11-26T12:35:40.291Z,101434.94
2023-11-26T12:38:09.443Z,101437.56
2023-11-26T12:40:38.942Z,101439.31
2023-11-26T12:43:08.190Z,101445.41
2023-11-26T12:45:36.960Z,101448.00
2023-11-26T12:48:06.364Z,101443.66
2023-11-26T12:50:44.142Z,101441.06
2023-11-26T12:53:14.733Z,101438.44
2023-11-26T12:55:47.590Z,101438.44
2023-11-26T12:58:25.062Z,101416.66
2023-11-26T13:00:54.130Z,101440.19
2023-11-26T13:03:23.430Z,101435.84
2023-11-26T13:05:53.421Z,101442.81
2023-11-26T13:08:26.394Z,101448.00
2023-11-26T13:10:59.376Z,101432.34
2023-11-26T13:13:33.481Z,101444.53
2023-11-26T13:16:06.120Z,101449.75
2023-11-26T13:18:36.114Z,101445.41
2023-11-26T13:21:08.080Z,101449.78
2023-11-26T13:23:39.683Z,101449.75
2023-11-26T13:26:09.141Z,101455.84
2023-11-26T13:28:40.579Z,101444.53
2023-11-26T13:31:09.432Z,101459.34
2023-11-26T13:33:38.552Z,101459.34
2023-11-26T13:36:07.745Z,101454.13
2023-11-26T13:38:36.891Z,101456.72
2023-11-26T13:41:05.901Z,101459.34
2023-11-26T13:43:34.903Z,101457.59
2023-11-26T13:46:05.317Z,101461.94
2023-11-26T13:48:36.243Z,101461.97
2023-11-26T13:51:05.701Z,101474.13
2023-11-26T13:53:35.695Z,101471.53
2023-11-26T13:56:05.813Z,101465.44
2023-11-26T13:58:41.179Z,101470.63
2023-11-26T14:01:11.552Z,101475.00
2023-11-26T14:03:41.199Z,101483.72
2023-11-26T14:06:11.313Z,101487.19
2023-11-26T14:08:40.762Z,101483.69
2023-11-26T14:11:10.678Z,101476.78
2023-11-26T14:13:39.740Z,101497.66
2023-11-26T14:16:12.216Z,101482.00
2023-11-26T14:18:45.863Z,101496.81
2023-11-26T14:21:17.785Z,101496.78
2023-11-26T14:23:46.672Z,101510.72
2023-11-26T14:26:15.540Z,101502.00
2023-11-26T14:28:44.812Z,101511.59
2023-11-26T14:31:13.664Z,101512.44
2023-11-26T14:33:42.774Z,101512.47
2023-11-26T14:36:16.756Z,101522.91
2023-11-26T14:38:45.919Z,101522.91
2023-11-26T14:41:17.603Z,101523.78
2023-11-26T14:43:47.041Z,101515.94
2023-11-26T14:46:20.909Z,101504.56
2023-11-26T14:48:49.836Z,101527.25
2023-11-26T14:51:18.568Z,101522.91
2023-11-26T14:53:49.332Z,101528.97
2023-11-26T14:56:18.842Z,101523.75
2023-11-26T14:58:47.588Z,101525.47
2023-11-26T15:01:16.680Z,101509.78
2023-11-26T15:03:49.257Z,101533.34
2023-11-26T15:06:22.069Z,101534.16
2023-11-26T15:08:51.202Z,101539.41
2023-11-26T15:11:20.035Z,101549.84
2023-11-26T15:13:49.276Z,101549.84
2023-11-26T15:16:18.158Z,101549.84
2023-11-26T15:18:47.082Z,101555.03
2023-11-26T15:21:17.818Z,101561.16
2023-11-26T15:23:46.836Z,101569.88
2023-11-26T15:26:23.778Z,101562.91
2023-11-26T15:28:55.077Z,101562.00
2023-11-26T15:31:23.936Z,101562.03
2023-11-26T15:33:53.169Z,101569.91
2023-11-26T15:36:22.366Z,101569.88
2023-11-26T15:38:54.125Z,101569.03
2023-11-26T15:41:24.769Z,101548.94
2023-11-26T15:43:54.452Z,101569.88
2023-11-26T15:46:24.923Z,101572.50
2023-11-26T15:48:54.562Z,101574.22
2023-11-26T15:51:24.250Z,101572.47
2023-11-26T15:54:02.454Z,101578.59
2023-11-26T15:56:32.776Z,101579.44
2023-11-26T15:59:02.128Z,101584.69
2023-11-26T16:02:45.672Z,101584.66
2023-11-26T16:05:15.777Z,101581.19
2023-11-26T16:07:44.537Z,101579.44
2023-11-26T16:10:13.303Z,101578.56
2023-11-26T16:12:42.197Z,101583.78
2023-11-26T16:15:12.599Z,101577.69
2023-11-26T16:17:43.668Z,101591.63
2023-11-26T16:20:13.544Z,101579.41
2023-11-26T16:22:42.118Z,101592.50
2023-11-26T16:25:11.636Z,101597.69
2023-11-26T16:27:40.207Z,101582.84
2023-11-26T16:30:09.637Z,101598.56
2023-11-26T16:32:38.652Z,101585.50
2023-11-26T16:35:08.034Z,101598.56
2023-11-26T16:37:37.010Z,101603.81
2023-11-26T16:40:09.717Z,101607.25
2023-11-26T16:42:38.671Z,101614.19
2023-11-26T16:45:10.633Z,101608.94
2023-11-26T16:47:39.720Z,101628.16
2023-11-26T16:50:08.866Z,101626.41
2023-11-26T16:52:37.765Z,101624.66
2023-11-26T16:55:06.928Z,101616.81
2023-11-26T16:57:35.877Z,101619.44
2023-11-26T17:00:06.115Z,101628.13
2023-11-26T17:02:35.379Z,101626.34
2023-11-26T17:05:05.773Z,101638.56
2023-11-26T17:07:34.343Z,101638.56
2023-11-26T17:10:03.669Z,101608.91
2023-11-26T17:12:38.088Z,101621.13
2023-11-26T17:15:08.264Z,101608.97
2023-11-26T17:17:37.194Z,101619.41
2023-11-26T17:20:06.489Z,101621.13
2023-11-26T17:22:36.090Z,101615.03
2023-11-26T17:25:05.474Z,101620.25
2023-11-26T17:27:34.008Z,101612.41
2023-11-26T17:30:02.851Z,101607.16
2023-11-26T17:32:31.794Z,101601.94
2023-11-26T17:35:00.562Z,101621.94
2023-11-26T17:37:29.571Z,101633.25
2023-11-26T17:39:58.664Z,101619.28
2023-11-26T17:42:28.865Z,101625.38
2023-11-26T17:44:58.588Z,101627.09
2023-11-26T17:47:27.584Z,101622.75
2023-11-26T17:49:56.580Z,101617.53
2023-11-26T17:52:26.837Z,101601.81
2023-11-26T17:54:56.810Z,101625.31
2023-11-26T17:57:25.830Z,101624.41
2023-11-26T17:59:54.705Z,101626.09
2023-11-26T18:02:23.354Z,101632.16
2023-11-26T18:04:53.831Z,101628.66
2023-11-26T18:07:22.764Z,101627.72
2023-11-26T18:09:54.522Z,101619.00
2023-11-26T18:12:23.157Z,101625.91
2023-11-26T18:14:52.276Z,101631.09
2023-11-26T18:17:21.855Z,101631.91
2023-11-26T18:19:53.527Z,101630.13
2023-11-26T18:22:22.044Z,101637.06
2023-11-26T18:24:51.055Z,101643.09
2023-11-26T18:27:19.916Z,101624.66
2023-11-26T18:29:49.243Z,101625.56
2023-11-26T18:32:17.729Z,101642.94
2023-11-26T18:34:48.143Z,101619.31
2023-11-26T18:37:17.717Z,101643.72
2023-11-26T18:39:46.393Z,101644.59
2023-11-26T18:42:16.987Z,101648.00
2023-11-26T18:44:45.832Z,101648.84
2023-11-26T18:47:15.915Z,101656.59
2023-11-26T18:49:44.461Z,101661.72
2023-11-26T18:52:15.605Z,101668.56
2023-11-26T18:54:46.481Z,101666.72
2023-11-26T18:57:15.717Z,101689.38
2023-11-26T18:59:46.804Z,101685.94
2023-11-26T19:02:20.708Z,101683.28
2023-11-26T19:04:49.921Z,101682.41
2023-11-26T19:07:18.651Z,101690.25
2023-11-26T19:09:47.250Z,101682.47
2023-11-26T19:12:16.288Z,101688.59
2023-11-26T19:14:45.256Z,101686.03
2023-11-26T19:17:13.961Z,101686.03
2023-11-26T19:19:42.848Z,101691.28
2023-11-26T19:22:11.661Z,101703.47
2023-11-26T19:24:40.430Z,101702.59
2023-11-26T19:27:09.779Z,101706.91
2023-11-26T19:29:40.678Z,101711.34
2023-11-26T19:32:09.970Z,101702.59
2023-11-26T19:34:38.978Z,101716.56
2023-11-26T19:37:11.999Z,101716.63
2023-11-26T19:39:42.701Z,101708.78
2023-11-26T19:42:14.874Z,101709.72
2023-11-26T19:44:43.821Z,101714.94
2023-11-26T19:47:12.590Z,101707.16
2023-11-26T19:49:41.588Z,101706.31
2023-11-26T19:52:12.474Z,101702.84
2023-11-26T19:54:41.472Z,101698.50
2023-11-26T19:57:10.353Z,101708.97
2023-11-26T19:59:39.289Z,101712.50
2023-11-26T20:02:08.272Z,101710.81
2023-11-26T20:04:37.369Z,101714.31
2023-11-26T20:07:06.852Z,101714.34
2023-11-26T20:09:35.676Z,101711.69
2023-11-26T20:12:04.697Z,101715.16
2023-11-26T20:14:33.617Z,101690.72
2023-11-26T20:17:03.839Z,101709.09
2023-11-26T20:19:32.604Z,101714.34
2023-11-26T20:22:01.406Z,101728.28
2023-11-26T20:24:30.207Z,101725.69
2023-11-26T20:26:58.638Z,101729.19
2023-11-26T20:29:30.622Z,101745.78
2023-11-26T20:31:59.676Z,101728.41
2023-11-26T20:34:28.216Z,101706.63
2023-11-26T20:36:56.976Z,101725.00
2023-11-26T20:39:25.705Z,101717.22
2023-11-26T20:41:56.963Z,101715.47
2023-11-26T20:44:25.622Z,101712.88
2023-11-26T20:46:58.519Z,101716.41
2023-11-26T20:49:28.374Z,101693.69
2023-11-26T20:51:57.350Z,101704.22
2023-11-26T20:54:26.160Z,101706.81
2023-11-26T20:56:55.181Z,101700.75
2023-11-26T20:59:23.971Z,101702.50
2023-11-26T21:01:52.650Z,101705.06
2023-11-26T21:04:23.691Z,101691.13
2023-11-26T21:06:52.910Z,101717.28
2023-11-26T21:09:21.832Z,101707.72
2023-11-26T21:11:52.003Z,101719.91
2023-11-26T21:14:21.455Z,101709.41
2023-11-26T21:16:50.540Z,101719.00
2023-11-26T21:19:19.191Z,101716.38
2023-11-26T21:21:47.796Z,101718.97
2023-11-26T21:24:16.329Z,101704.16
2023-11-26T21:26:45.670Z,101711.13
2023-11-26T21:29:14.221Z,101709.38
2023-11-26T21:31:43.252Z,101704.16
2023-11-26T21:34:14.895Z,101717.22
2023-11-26T21:36:50.133Z,101725.06
2023-11-26T21:39:19.140Z,101716.38
2023-11-26T21:41:48.807Z,101727.66
2023-11-26T21:44:17.657Z,101714.59
2023-11-26T21:46:46.037Z,101725.88
2023-11-26T21:49:16.669Z,101724.97
2023-11-26T21:51:46.212Z,101721.56
2023-11-26T21:54:17.245Z,101726.78
2023-11-26T21:56:45.854Z,101724.16
2023-11-26T21:59:15.549Z,101722.38
2023-11-26T22:01:44.558Z,101723.25
2023-11-26T22:04:14.030Z,101735.47
2023-11-26T22:06:42.866Z,101746.81
2023-11-26T22:09:11.832Z,101747.63
2023-11-26T22:11:40.689Z,101747.63
2023-11-26T22:14:09.578Z,101743.22
2023-11-26T22:16:40.089Z,101756.31
2023-11-26T22:19:09.452Z,101750.19
2023-11-26T22:21:37.968Z,101743.28
2023-11-26T22:24:08.657Z,101724.91
2023-11-26T22:26:40.720Z,101741.44
2023-11-26T22:29:10.160Z,101764.13
2023-11-26T22:31:39.402Z,101771.09
2023-11-26T22:34:09.329Z,101784.16
2023-11-26T22:36:39.810Z,101783.28
2023-11-26T22:39:15.700Z,101776.25
2023-11-26T22:41:44.640Z,101796.28
2023-11-26T22:44:13.555Z,101786.75
2023-11-26T22:46:42.100Z,101790.25
2023-11-26T22:49:10.743Z,101774.44
2023-11-26T22:51:40.616Z,101786.72
2023-11-26T22:54:09.808Z,101787.53
2023-11-26T22:56:38.415Z,101793.63
2023-11-26T22:59:07.406Z,101791.88
2023-11-26T23:01:36.181Z,101796.22
2023-11-26T23:04:04.945Z,101797.91
2023-11-26T23:06:34.209Z,101812.75
2023-11-26T23:09:02.887Z,101802.28
2023-11-26T23:11:31.495Z,101804.03
2023-11-26T23:14:00.324Z,101797.97
2023-11-26T23:16:28.993Z,101799.66
2023-11-26T23:18:57.739Z,101805.78
2023-11-26T23:21:27.114Z,101813.66
2023-11-26T23:23:56.287Z,101806.63
2023-11-26T23:26:26.037Z,101804.97
2023-11-26T23:28:54.699Z,101778.69
2023-11-26T23:31:26.071Z,101805.75
2023-11-26T23:33:54.898Z,101814.47
2023-11-26T23:36:26.290Z,101806.56
2023-11-26T23:38:56.986Z,101816.16
2023-11-26T23:41:25.835Z,101810.06
2023-11-26T23:43:54.258Z,101814.34
2023-11-26T23:46:22.947Z,101806.50
2023-11-26T23:48:51.951Z,101823.09
2023-11-26T23:51:20.671Z,101813.47
2023-11-26T23:53:49.350Z,101817.84
2023-11-26T23:56:20.781Z,101820.50
2023-11-26T23:58:49.713Z,101799.50
